Time;durP1;ratioP1;P1;durP2;ratioP2;P2;SDS_P1;SDS_P2;PMS_P1;PMS_P2;Temp;Humidity;BMP_temperature;BMP_pressure;BME280_temperature;BME280_humidity;BME280_pressure;Samples;Min_cycle;Max_cycle;Signal;HPM_P1;HPM_P2
2022/07/09 00:02:42;;;;;;;2.17;1.30;;;;;;;;;;4955405;28;20187;-87
2022/07/09 00:05:46;;;;;;;5.33;1.60;;;;;;;;;;4965879;28;20210;-85
2022/07/09 00:08:50;;;;;;;3.83;1.40;;;;;;;;;;4955113;28;20650;-88
2022/07/09 00:11:54;;;;;;;2.80;1.57;;;;;;;;;;4955125;28;20218;-86
2022/07/09 00:14:58;;;;;;;5.93;1.60;;;;;;;;;;4966108;28;20200;-86
2022/07/09 00:18:02;;;;;;;4.60;1.90;;;;;;;;;;4954926;28;20187;-88
2022/07/09 00:21:06;;;;;;;3.57;1.90;;;;;;;;;;4954993;28;20214;-88
2022/07/09 00:24:11;;;;;;;3.97;1.83;;;;;;;;;;4954651;28;20186;-87
2022/07/09 00:27:15;;;;;;;6.33;2.13;;;;;;;;;;4955132;28;20187;-86
2022/07/09 00:30:19;;;;;;;3.83;1.63;;;;;;;;;;4955034;28;20238;-85
2022/07/09 00:33:23;;;;;;;2.80;1.40;;;;;;;;;;4954778;28;20206;-86
2022/07/09 00:36:27;;;;;;;2.60;1.57;;;;;;;;;;4954746;28;20179;-88
2022/07/09 00:39:32;;;;;;;4.67;2.07;;;;;;;;;;4954367;28;20222;-87
2022/07/09 00:42:36;;;;;;;4.87;1.60;;;;;;;;;;4954597;28;20187;-87
2022/07/09 00:45:40;;;;;;;5.60;1.40;;;;;;;;;;4954419;28;20187;-88
2022/07/09 00:48:44;;;;;;;4.87;1.53;;;;;;;;;;4965357;28;20539;-88
2022/07/09 00:51:48;;;;;;;3.27;1.37;;;;;;;;;;5005811;23;20245;-83
2022/07/09 00:54:54;;;;;;;3.93;1.53;;;;;;;;;;4964468;28;20186;-83
2022/07/09 00:57:58;;;;;;;4.23;1.53;;;;;;;;;;4986875;28;20190;-83
2022/07/09 01:01:02;;;;;;;2.87;1.43;;;;;;;;;;4955691;28;20214;-83
2022/07/09 01:04:06;;;;;;;5.70;1.80;;;;;;;;;;4966855;28;20187;-83
2022/07/09 01:07:10;;;;;;;2.07;1.33;;;;;;;;;;4967188;28;20175;-83
2022/07/09 01:10:15;;;;;;;3.23;1.60;;;;;;;;;;4966379;28;20230;-83
2022/07/09 01:13:19;;;;;;;2.83;1.60;;;;;;;;;;4944435;28;20199;-84
2022/07/09 01:16:31;;;;;;;7.20;1.67;;;;;;;;;;4955849;28;20186;-82
2022/07/09 01:19:35;;;;;;;3.77;1.67;;;;;;;;;;4943988;28;20183;-83
2022/07/09 01:22:41;;;;;;;4.27;1.47;;;;;;;;;;4956034;28;20183;-81
2022/07/09 01:25:45;;;;;;;2.57;1.40;;;;;;;;;;4966579;28;20187;-83
2022/07/09 01:28:49;;;;;;;2.10;1.40;;;;;;;;;;4954995;28;20187;-83
2022/07/09 01:31:54;;;;;;;5.33;1.60;;;;;;;;;;4954750;28;20222;-82
2022/07/09 01:34:58;;;;;;;2.60;1.67;;;;;;;;;;4955259;28;20187;-83
2022/07/09 01:38:02;;;;;;;4.73;1.40;;;;;;;;;;4944630;28;20191;-83
2022/07/09 01:41:06;;;;;;;3.37;1.50;;;;;;;;;;4965964;28;20717;-84
2022/07/09 01:44:10;;;;;;;2.77;1.50;;;;;;;;;;4966002;28;20187;-83
2022/07/09 01:47:14;;;;;;;2.83;1.50;;;;;;;;;;4955223;28;20186;-84
2022/07/09 01:50:18;;;;;;;2.90;1.70;;;;;;;;;;4953780;28;20578;-84
2022/07/09 01:53:22;;;;;;;6.07;1.80;;;;;;;;;;4965833;28;20187;-84
2022/07/09 01:56:26;;;;;;;3.53;1.47;;;;;;;;;;4954173;28;20183;-84
2022/07/09 01:59:30;;;;;;;3.43;1.80;;;;;;;;;;4944232;28;20187;-84
2022/07/09 02:02:35;;;;;;;4.17;1.70;;;;;;;;;;4955204;28;20183;-82
2022/07/09 02:05:39;;;;;;;2.50;1.50;;;;;;;;;;4965792;28;20179;-84
2022/07/09 02:08:43;;;;;;;2.20;1.70;;;;;;;;;;4944470;28;20187;-82
2022/07/09 02:11:49;;;;;;;4.50;1.80;;;;;;;;;;4954009;28;20218;-82
2022/07/09 02:14:53;;;;;;;2.90;1.93;;;;;;;;;;4944255;28;20527;-83
2022/07/09 02:17:58;;;;;;;4.77;1.70;;;;;;;;;;4943688;28;20187;-83
2022/07/09 02:21:04;;;;;;;4.23;1.70;;;;;;;;;;4965703;28;20215;-83
2022/07/09 02:24:08;;;;;;;2.57;1.67;;;;;;;;;;4954942;28;20187;-83
2022/07/09 02:27:12;;;;;;;3.53;1.80;;;;;;;;;;4954451;28;20626;-82
2022/07/09 02:30:16;;;;;;;3.37;1.77;;;;;;;;;;4953677;28;20215;-82
2022/07/09 02:33:21;;;;;;;4.87;1.80;;;;;;;;;;4965133;28;20626;-82
2022/07/09 02:36:25;;;;;;;4.30;1.80;;;;;;;;;;4954708;28;20539;-83
2022/07/09 02:39:29;;;;;;;3.53;1.60;;;;;;;;;;4954090;28;20546;-83
2022/07/09 02:42:33;;;;;;;3.00;1.60;;;;;;;;;;4943952;28;20538;-83
2022/07/09 02:45:37;;;;;;;5.97;1.90;;;;;;;;;;4946179;28;20191;-85
2022/07/09 02:48:41;;;;;;;3.13;1.87;;;;;;;;;;4969557;28;20186;-84
2022/07/09 02:51:45;;;;;;;6.60;1.90;;;;;;;;;;4947078;28;20579;-85
2022/07/09 02:54:49;;;;;;;3.70;1.73;;;;;;;;;;4948025;28;20527;-85
2022/07/09 02:57:53;;;;;;;3.17;1.80;;;;;;;;;;4958101;28;20198;-85
2022/07/09 03:00:59;;;;;;;2.47;1.57;;;;;;;;;;4958011;28;20321;-85
2022/07/09 03:04:03;;;;;;;4.60;1.53;;;;;;;;;;4957998;28;20187;-85
2022/07/09 03:07:08;;;;;;;4.50;1.90;;;;;;;;;;4948213;28;20194;-85
2022/07/09 03:10:12;;;;;;;6.03;1.90;;;;;;;;;;4946641;28;20226;-85
2022/07/09 03:13:16;;;;;;;1.60;1.43;;;;;;;;;;4946542;28;20535;-84
2022/07/09 03:16:20;;;;;;;2.50;2.00;;;;;;;;;;4957795;28;20194;-85
2022/07/09 03:19:25;;;;;;;2.93;1.70;;;;;;;;;;4946259;28;20190;-85
2022/07/09 03:22:29;;;;;;;4.53;1.80;;;;;;;;;;4969447;28;20202;-86
2022/07/09 03:25:33;;;;;;;3.40;1.73;;;;;;;;;;4946956;28;20191;-85
2022/07/09 03:28:37;;;;;;;5.63;2.07;;;;;;;;;;4948163;28;20183;-85
2022/07/09 03:31:42;;;;;;;3.27;1.60;;;;;;;;;;4968596;28;20231;-85
2022/07/09 03:34:46;;;;;;;2.53;1.70;;;;;;;;;;4958452;28;20642;-85
2022/07/09 03:37:50;;;;;;;5.80;2.00;;;;;;;;;;4957879;28;20186;-85
2022/07/09 03:40:55;;;;;;;5.17;1.70;;;;;;;;;;4957880;28;20226;-86
2022/07/09 03:43:59;;;;;;;4.93;1.73;;;;;;;;;;4957515;28;20210;-85
2022/07/09 03:47:04;;;;;;;5.17;1.90;;;;;;;;;;4968570;28;20186;-85
2022/07/09 03:50:08;;;;;;;3.73;1.77;;;;;;;;;;4957084;28;20234;-85
2022/07/09 03:53:12;;;;;;;3.97;2.00;;;;;;;;;;4967605;28;20183;-85
2022/07/09 03:56:17;;;;;;;5.40;2.00;;;;;;;;;;4969453;28;20187;-86
2022/07/09 03:59:21;;;;;;;3.07;1.80;;;;;;;;;;4958170;28;20191;-85
2022/07/09 04:02:25;;;;;;;4.43;1.90;;;;;;;;;;4969347;28;20183;-86
2022/07/09 04:05:29;;;;;;;6.13;2.33;;;;;;;;;;4946933;28;20186;-85
2022/07/09 04:08:34;;;;;;;4.57;2.00;;;;;;;;;;4958575;28;20183;-86
2022/07/09 04:11:38;;;;;;;4.03;2.03;;;;;;;;;;4946650;28;20226;-85
2022/07/09 04:14:42;;;;;;;4.40;2.20;;;;;;;;;;4960928;28;20214;-86
2022/07/09 04:17:47;;;;;;;4.40;2.00;;;;;;;;;;4961357;28;20670;-85
2022/07/09 04:20:52;;;;;;;5.83;1.87;;;;;;;;;;4961249;28;20546;-85
2022/07/09 04:23:56;;;;;;;3.93;2.50;;;;;;;;;;4962030;28;20191;-85
2022/07/09 04:27:00;;;;;;;4.47;2.00;;;;;;;;;;4972896;28;20187;-86
2022/07/09 04:30:08;;;;;;;4.63;2.03;;;;;;;;;;4961019;28;20697;-85
2022/07/09 04:33:13;;;;;;;3.70;1.93;;;;;;;;;;4950120;28;20682;-85
2022/07/09 04:36:17;;;;;;;3.97;1.77;;;;;;;;;;4959676;28;20206;-85
2022/07/09 04:39:24;;;;;;;3.33;1.90;;;;;;;;;;4959941;28;20210;-85
2022/07/09 04:42:28;;;;;;;3.53;2.00;;;;;;;;;;4948527;28;20183;-85
2022/07/09 04:45:34;;;;;;;4.87;1.87;;;;;;;;;;4959289;28;20191;-85
2022/07/09 04:48:38;;;;;;;4.00;1.80;;;;;;;;;;4948283;28;20187;-85
2022/07/09 04:51:42;;;;;;;2.33;1.73;;;;;;;;;;4957023;28;20230;-82
2022/07/09 04:54:47;;;;;;;5.33;2.20;;;;;;;;;;4955975;28;20535;-83
2022/07/09 04:57:51;;;;;;;7.80;1.87;;;;;;;;;;4966675;28;20187;-82
2022/07/09 05:00:55;;;;;;;4.00;1.80;;;;;;;;;;4955123;28;20219;-83
2022/07/09 05:03:59;;;;;;;4.37;1.70;;;;;;;;;;4954970;28;20182;-83
2022/07/09 05:07:03;;;;;;;3.87;2.00;;;;;;;;;;4965989;28;20187;-83
2022/07/09 05:10:08;;;;;;;6.57;2.40;;;;;;;;;;4966016;28;20227;-82
2022/07/09 05:13:13;;;;;;;4.37;1.93;;;;;;;;;;4966480;28;20551;-83
2022/07/09 05:16:17;;;;;;;4.03;2.10;;;;;;;;;;4955711;28;20535;-82
2022/07/09 05:19:21;;;;;;;6.00;2.20;;;;;;;;;;4944674;28;20195;-82
2022/07/09 05:22:25;;;;;;;2.63;1.83;;;;;;;;;;4955367;28;20175;-83
2022/07/09 05:25:30;;;;;;;3.53;1.77;;;;;;;;;;4964878;28;20553;-83
2022/07/09 05:28:34;;;;;;;3.97;1.73;;;;;;;;;;4955449;28;20186;-84
2022/07/09 05:31:38;;;;;;;5.33;2.23;;;;;;;;;;4965577;28;20698;-82
2022/07/09 05:34:42;;;;;;;4.17;2.20;;;;;;;;;;4943871;28;20187;-82
2022/07/09 05:37:46;;;;;;;3.47;1.80;;;;;;;;;;4954711;28;20186;-83
2022/07/09 05:40:50;;;;;;;4.27;1.80;;;;;;;;;;4965685;28;20562;-83
2022/07/09 05:43:55;;;;;;;7.50;2.20;;;;;;;;;;4954932;28;20623;-82
2022/07/09 05:46:59;;;;;;;5.47;1.97;;;;;;;;;;4944299;28;20634;-82
2022/07/09 05:50:04;;;;;;;5.33;2.00;;;;;;;;;;4964865;28;20222;-82
2022/07/09 05:53:07;;;;;;;6.40;2.13;;;;;;;;;;4953928;28;20210;-82
2022/07/09 05:56:12;;;;;;;3.97;2.03;;;;;;;;;;4964661;28;20190;-82
2022/07/09 05:59:16;;;;;;;6.87;2.17;;;;;;;;;;4965445;28;20197;-83
2022/07/09 06:02:21;;;;;;;2.13;1.80;;;;;;;;;;4954397;28;20511;-82
2022/07/09 06:05:25;;;;;;;5.87;2.43;;;;;;;;;;4965456;28;20183;-83
2022/07/09 06:08:29;;;;;;;2.47;2.00;;;;;;;;;;4943520;28;20186;-84
2022/07/09 06:11:33;;;;;;;2.67;2.07;;;;;;;;;;4975653;28;20230;-82
2022/07/09 06:14:38;;;;;;;6.37;2.57;;;;;;;;;;4943848;28;20195;-83
2022/07/09 06:17:42;;;;;;;3.03;1.93;;;;;;;;;;4965291;28;20186;-83
2022/07/09 06:20:46;;;;;;;4.30;2.07;;;;;;;;;;4954223;28;20223;-82
2022/07/09 06:23:50;;;;;;;3.53;2.20;;;;;;;;;;4942960;28;20178;-82
2022/07/09 06:26:54;;;;;;;5.93;1.90;;;;;;;;;;4942455;28;20186;-83
2022/07/09 06:29:58;;;;;;;3.77;1.70;;;;;;;;;;4953619;28;20218;-83
2022/07/09 06:33:03;;;;;;;4.67;1.80;;;;;;;;;;4953232;28;20210;-84
2022/07/09 06:36:07;;;;;;;4.90;2.00;;;;;;;;;;4964225;28;20191;-82
2022/07/09 06:42:34;;;;;;;2.27;1.70;;;;;;;;;;4953196;28;20187;-82
2022/07/09 06:45:45;;;;;;;5.83;1.93;;;;;;;;;;4953599;28;20523;-83
2022/07/09 06:48:49;;;;;;;5.17;2.13;;;;;;;;;;4942759;28;20183;-83
2022/07/09 06:51:54;;;;;;;7.23;1.90;;;;;;;;;;5019419;23;20233;-85
2022/07/09 06:54:58;;;;;;;6.73;1.83;;;;;;;;;;4963566;28;20198;-85
2022/07/09 06:58:02;;;;;;;3.63;1.97;;;;;;;;;;4987316;28;20625;-85
2022/07/09 07:01:06;;;;;;;4.50;1.80;;;;;;;;;;4966617;28;20218;-85
2022/07/09 07:04:12;;;;;;;3.83;1.83;;;;;;;;;;4955341;28;20183;-85
2022/07/09 07:07:16;;;;;;;3.43;1.90;;;;;;;;;;4977937;28;20183;-86
2022/07/09 07:10:20;;;;;;;5.57;2.17;;;;;;;;;;4966128;28;20222;-86
2022/07/09 07:13:24;;;;;;;4.07;1.70;;;;;;;;;;4966807;28;20206;-85
2022/07/09 07:16:29;;;;;;;3.77;1.90;;;;;;;;;;4966785;28;20187;-86
2022/07/09 07:19:33;;;;;;;2.63;1.83;;;;;;;;;;4965921;28;20191;-86
2022/07/09 07:22:37;;;;;;;3.90;1.90;;;;;;;;;;4965176;28;20183;-85
2022/07/09 07:25:42;;;;;;;3.87;1.67;;;;;;;;;;4954762;28;20187;-85
2022/07/09 07:28:46;;;;;;;3.20;1.60;;;;;;;;;;4965792;28;20182;-85
2022/07/09 07:31:50;;;;;;;3.00;1.60;;;;;;;;;;4966678;28;20218;-86
2022/07/09 07:34:54;;;;;;;4.73;1.90;;;;;;;;;;4955029;28;20187;-85
2022/07/09 07:38:01;;;;;;;7.40;1.70;;;;;;;;;;4953775;28;20210;-86
2022/07/09 07:41:05;;;;;;;4.37;1.50;;;;;;;;;;4954218;28;20567;-85
2022/07/09 07:44:10;;;;;;;2.93;1.43;;;;;;;;;;4954435;28;20183;-86
2022/07/09 07:47:13;;;;;;;7.30;1.60;;;;;;;;;;4966256;28;20187;-86
2022/07/09 07:50:18;;;;;;;3.27;1.50;;;;;;;;;;4957976;28;20230;-85
2022/07/09 07:53:22;;;;;;;4.27;1.37;;;;;;;;;;4969711;28;20550;-85
2022/07/09 07:56:27;;;;;;;4.27;1.30;;;;;;;;;;4968493;28;20212;-85
2022/07/09 07:59:31;;;;;;;3.97;1.40;;;;;;;;;;4968704;28;20206;-86
2022/07/09 08:02:35;;;;;;;3.17;1.63;;;;;;;;;;4957367;28;20203;-85
2022/07/09 08:05:39;;;;;;;6.23;1.43;;;;;;;;;;4968664;28;20190;-85
2022/07/09 08:08:43;;;;;;;3.67;1.50;;;;;;;;;;4957790;28;20195;-85
2022/07/09 08:11:47;;;;;;;5.77;1.70;;;;;;;;;;4968046;28;20704;-85
2022/07/09 08:14:51;;;;;;;4.55;1.42;;;;;;;;;;4957039;28;20183;-85
2022/07/09 08:17:56;;;;;;;3.78;1.23;;;;;;;;;;4956530;28;20211;-85
2022/07/09 08:21:00;;;;;;;2.60;1.20;;;;;;;;;;4956498;28;20218;-86
2022/07/09 08:24:06;;;;;;;4.10;1.23;;;;;;;;;;4967839;28;20178;-86
2022/07/09 08:27:10;;;;;;;3.53;1.25;;;;;;;;;;4956306;28;20194;-85
2022/07/09 08:30:15;;;;;;;4.43;1.10;;;;;;;;;;4967482;28;20228;-86
2022/07/09 08:33:19;;;;;;;5.25;1.40;;;;;;;;;;4956071;28;20217;-86
2022/07/09 08:36:23;;;;;;;5.85;1.20;;;;;;;;;;4955711;28;20204;-86
2022/07/09 08:39:27;;;;;;;4.90;1.33;;;;;;;;;;4956089;28;20205;-85
2022/07/09 08:42:31;;;;;;;3.00;1.10;;;;;;;;;;4967220;28;20189;-86
2022/07/09 08:45:36;;;;;;;4.50;1.20;;;;;;;;;;4967555;28;20188;-86
2022/07/09 08:48:42;;;;;;;3.88;1.33;;;;;;;;;;4955969;28;20190;-86
2022/07/09 08:51:49;;;;;;;3.38;1.13;;;;;;;;;;4943786;28;20234;-86
2022/07/09 08:54:53;;;;;;;5.40;1.38;;;;;;;;;;4966011;28;20548;-86
2022/07/09 08:57:58;;;;;;;2.70;0.93;;;;;;;;;;4955155;28;20194;-86
2022/07/09 09:01:04;;;;;;;3.70;1.05;;;;;;;;;;4966127;28;20578;-86
2022/07/09 09:04:08;;;;;;;3.30;1.20;;;;;;;;;;4955298;28;20186;-86
2022/07/09 09:07:17;;;;;;;2.42;1.10;;;;;;;;;;4954914;28;20194;-86
2022/07/09 09:10:26;;;;;;;1.77;1.25;;;;;;;;;;4965484;28;20218;-86
2022/07/09 09:13:30;;;;;;;4.18;1.10;;;;;;;;;;4956870;28;20671;-85
2022/07/09 09:16:42;;;;;;;3.75;1.10;;;;;;;;;;4957248;28;20189;-86
2022/07/09 09:19:46;;;;;;;2.60;0.90;;;;;;;;;;4965924;28;20193;-86
2022/07/09 09:23:04;;;;;;;1.83;0.90;;;;;;;;;;4954818;28;20186;-86
2022/07/09 09:26:12;;;;;;;3.15;1.00;;;;;;;;;;4953831;28;20538;-86
2022/07/09 09:29:16;;;;;;;2.47;0.90;;;;;;;;;;4954579;28;20190;-86
2022/07/09 09:32:21;;;;;;;3.35;1.20;;;;;;;;;;4954414;28;20190;-86
2022/07/09 09:35:27;;;;;;;3.13;1.15;;;;;;;;;;4943392;28;20184;-86
2022/07/09 09:38:31;;;;;;;2.28;0.90;;;;;;;;;;4965670;28;20641;-86
2022/07/09 09:41:36;;;;;;;1.27;0.85;;;;;;;;;;4954166;28;20223;-86
2022/07/09 09:44:42;;;;;;;1.60;0.68;;;;;;;;;;4965157;28;20203;-86
2022/07/09 09:47:50;;;;;;;2.50;0.65;;;;;;;;;;4965427;28;20208;-86
2022/07/09 09:50:57;;;;;;;2.40;0.80;;;;;;;;;;4953553;28;20234;-86
2022/07/09 09:54:02;;;;;;;2.40;0.90;;;;;;;;;;4964687;28;20226;-86
2022/07/09 09:57:09;;;;;;;2.42;1.00;;;;;;;;;;4964300;28;20193;-86
2022/07/09 10:00:15;;;;;;;3.95;1.10;;;;;;;;;;4976160;28;20237;-86
2022/07/09 10:03:20;;;;;;;44.97;21.92;;;;;;;;;;4954185;28;20183;-86
2022/07/09 10:06:26;;;;;;;3.45;1.30;;;;;;;;;;4943584;28;20211;-86
2022/07/09 10:09:30;;;;;;;2.38;1.27;;;;;;;;;;4953459;28;20197;-86
2022/07/09 10:12:36;;;;;;;8.02;4.07;;;;;;;;;;4954845;28;20194;-87
2022/07/09 10:15:48;;;;;;;3.15;1.38;;;;;;;;;;4942936;28;20181;-86
2022/07/09 10:18:53;;;;;;;5.22;1.55;;;;;;;;;;4954288;28;20197;-86
2022/07/09 10:21:58;;;;;;;4.60;1.05;;;;;;;;;;4954302;28;20225;-86
2022/07/09 10:25:03;;;;;;;4.82;1.10;;;;;;;;;;4954732;28;20188;-85
2022/07/09 10:28:15;;;;;;;3.90;1.33;;;;;;;;;;4965694;28;20203;-86
2022/07/09 10:31:20;;;;;;;6.90;1.60;;;;;;;;;;4965538;28;20722;-86
2022/07/09 10:34:53;;;;;;;3.28;1.17;;;;;;;;;;4956551;28;20223;-86
2022/07/09 10:37:57;;;;;;;4.68;1.25;;;;;;;;;;4959026;28;20197;-86
2022/07/09 10:41:03;;;;;;;1.77;0.80;;;;;;;;;;4959117;28;20228;-86
2022/07/09 10:44:07;;;;;;;2.92;1.10;;;;;;;;;;4967274;28;20184;-86
2022/07/09 10:47:12;;;;;;;2.78;1.25;;;;;;;;;;4966855;28;20181;-86
2022/07/09 10:50:16;;;;;;;2.22;0.90;;;;;;;;;;4953017;28;20224;-86
2022/07/09 10:53:29;;;;;;;2.17;0.70;;;;;;;;;;4952911;28;20216;-86
2022/07/09 10:56:34;;;;;;;4.72;0.93;;;;;;;;;;4964286;28;20202;-85
2022/07/09 10:59:38;;;;;;;3.50;0.90;;;;;;;;;;4952816;28;20189;-86
2022/07/09 11:02:54;;;;;;;5.30;0.98;;;;;;;;;;4941762;28;20191;-86
2022/07/09 11:05:58;;;;;;;3.25;0.90;;;;;;;;;;4952339;28;20179;-86
2022/07/09 11:09:14;;;;;;;3.55;0.75;;;;;;;;;;4952230;28;20535;-86
2022/07/09 11:12:21;;;;;;;1.77;0.70;;;;;;;;;;4965153;28;20659;-85
2022/07/09 11:15:27;;;;;;;2.03;0.80;;;;;;;;;;4962960;28;20682;-86
2022/07/09 11:18:31;;;;;;;1.20;0.55;;;;;;;;;;4963655;28;20203;-86
2022/07/09 11:21:36;;;;;;;3.60;0.63;;;;;;;;;;4976989;28;20553;-86
2022/07/09 11:24:40;;;;;;;0.95;0.50;;;;;;;;;;4956271;28;20653;-86
2022/07/09 11:27:44;;;;;;;3.25;0.88;;;;;;;;;;4956658;28;20194;-86
2022/07/09 11:31:05;;;;;;;2.58;0.85;;;;;;;;;;4956200;28;20223;-86
2022/07/09 11:34:11;;;;;;;1.67;0.60;;;;;;;;;;4956027;28;20211;-85
2022/07/09 11:37:23;;;;;;;2.15;0.70;;;;;;;;;;4945184;28;20193;-86
2022/07/09 11:40:28;;;;;;;1.80;0.50;;;;;;;;;;4955608;28;20227;-86
2022/07/09 11:43:32;;;;;;;1.13;0.60;;;;;;;;;;4956083;28;20540;-86
2022/07/09 11:46:37;;;;;;;5.85;0.95;;;;;;;;;;4967971;28;20192;-86
2022/07/09 11:49:43;;;;;;;1.67;0.73;;;;;;;;;;4957073;28;20194;-85
2022/07/09 11:52:49;;;;;;;1.05;0.63;;;;;;;;;;4967968;28;20188;-86
2022/07/09 11:56:04;;;;;;;4.57;1.08;;;;;;;;;;4957672;28;20169;-86
2022/07/09 11:59:08;;;;;;;1.45;0.95;;;;;;;;;;4957489;28;20205;-86
2022/07/09 12:02:40;;;;;;;2.10;0.93;;;;;;;;;;4947798;28;20222;-86
2022/07/09 12:05:50;;;;;;;1.73;0.90;;;;;;;;;;4959198;28;20183;-86
2022/07/09 12:09:02;;;;;;;1.83;0.80;;;;;;;;;;4968070;28;20180;-85
2022/07/09 12:12:07;;;;;;;4.63;0.90;;;;;;;;;;4969847;28;20224;-85
2022/07/09 12:15:11;;;;;;;1.47;1.00;;;;;;;;;;4946990;28;20216;-86
2022/07/09 12:18:15;;;;;;;3.33;1.00;;;;;;;;;;4957574;28;20193;-85
2022/07/09 12:21:19;;;;;;;1.40;0.80;;;;;;;;;;4967827;28;20227;-86
2022/07/09 12:24:24;;;;;;;4.20;0.60;;;;;;;;;;4970975;28;20186;-86
2022/07/09 12:27:28;;;;;;;2.90;0.70;;;;;;;;;;4968889;28;20200;-86
2022/07/09 12:30:32;;;;;;;1.50;0.80;;;;;;;;;;4956896;28;20227;-86
2022/07/09 12:33:36;;;;;;;1.83;0.70;;;;;;;;;;4955963;28;20190;-85
2022/07/09 12:36:41;;;;;;;5.18;0.60;;;;;;;;;;4957635;28;20196;-86
2022/07/09 12:39:45;;;;;;;1.98;0.80;;;;;;;;;;4968750;28;20527;-86
2022/07/09 12:42:49;;;;;;;3.80;1.25;;;;;;;;;;4957761;28;20190;-86
2022/07/09 12:45:53;;;;;;;2.88;0.80;;;;;;;;;;4980395;28;20630;-86
2022/07/09 12:48:57;;;;;;;3.10;0.95;;;;;;;;;;4978587;28;20209;-86
2022/07/09 12:52:01;;;;;;;2.67;0.90;;;;;;;;;;4968700;28;20241;-86
2022/07/09 12:55:07;;;;;;;4.97;1.07;;;;;;;;;;4967957;28;20214;-86
2022/07/09 12:58:11;;;;;;;2.00;0.70;;;;;;;;;;4958385;28;20636;-86
2022/07/09 13:01:15;;;;;;;1.77;0.87;;;;;;;;;;4956669;28;20223;-86
2022/07/09 13:04:19;;;;;;;2.90;0.70;;;;;;;;;;4946001;28;20180;-86
2022/07/09 13:07:24;;;;;;;2.00;0.70;;;;;;;;;;4980325;28;20195;-86
2022/07/09 13:10:28;;;;;;;1.37;0.70;;;;;;;;;;4956465;28;20229;-86
2022/07/09 13:13:32;;;;;;;3.53;0.87;;;;;;;;;;4956734;28;20205;-86
2022/07/09 13:16:36;;;;;;;3.47;0.77;;;;;;;;;;4957004;28;20528;-86
2022/07/09 13:19:41;;;;;;;2.63;0.73;;;;;;;;;;4944743;28;20215;-86
2022/07/09 13:22:45;;;;;;;1.20;0.67;;;;;;;;;;4957129;28;20187;-86
2022/07/09 13:25:49;;;;;;;1.60;0.70;;;;;;;;;;4957853;28;20181;-85
2022/07/09 13:28:53;;;;;;;1.03;0.70;;;;;;;;;;4969194;28;20184;-87
2022/07/09 13:31:57;;;;;;;1.47;0.77;;;;;;;;;;4958715;28;20220;-86
2022/07/09 13:35:02;;;;;;;1.37;0.80;;;;;;;;;;4956106;28;20209;-86
2022/07/09 13:38:07;;;;;;;0.93;0.70;;;;;;;;;;4956443;28;20513;-86
2022/07/09 13:41:11;;;;;;;2.07;0.63;;;;;;;;;;4968993;28;20230;-86
2022/07/09 13:44:15;;;;;;;6.73;0.70;;;;;;;;;;4967025;28;20185;-85
2022/07/09 13:47:19;;;;;;;1.20;0.70;;;;;;;;;;4956438;28;20531;-86
2022/07/09 13:50:23;;;;;;;2.90;1.00;;;;;;;;;;4955036;28;20232;-86
2022/07/09 13:53:29;;;;;;;4.47;0.57;;;;;;;;;;4967043;28;20628;-86
2022/07/09 13:56:33;;;;;;;1.15;0.50;;;;;;;;;;4966219;28;20183;-86
2022/07/09 13:59:37;;;;;;;0.85;0.52;;;;;;;;;;4955198;28;20204;-86
2022/07/09 14:02:41;;;;;;;1.05;0.60;;;;;;;;;;4966590;28;20191;-86
2022/07/09 14:05:46;;;;;;;1.10;0.60;;;;;;;;;;4944838;28;20174;-86
2022/07/09 14:08:57;;;;;;;0.75;0.50;;;;;;;;;;5113878;27;20834;-78
2022/07/09 14:12:02;;;;;;;1.75;0.60;;;;;;;;;;5100581;28;20223;-79
2022/07/09 14:15:07;;;;;;;0.60;0.50;;;;;;;;;;5114022;28;20185;-78
2022/07/09 14:18:11;;;;;;;1.27;0.50;;;;;;;;;;5113553;28;20187;-78
2022/07/09 14:21:15;;;;;;;1.40;0.70;;;;;;;;;;5120301;28;20214;-78
2022/07/09 14:24:19;;;;;;;1.40;0.60;;;;;;;;;;5104709;28;20186;-79
2022/07/09 14:27:23;;;;;;;2.08;0.80;;;;;;;;;;5113213;28;20215;-78
2022/07/09 14:30:28;;;;;;;2.55;0.65;;;;;;;;;;5116443;28;20203;-79
2022/07/09 14:33:32;;;;;;;1.00;0.70;;;;;;;;;;5117843;28;20204;-78
2022/07/09 14:36:36;;;;;;;1.25;0.70;;;;;;;;;;5115593;28;20626;-78
2022/07/09 14:39:41;;;;;;;2.10;0.70;;;;;;;;;;5114541;28;20200;-78
2022/07/09 14:42:45;;;;;;;1.37;0.60;;;;;;;;;;5113860;28;20171;-78
2022/07/09 14:45:49;;;;;;;3.70;0.90;;;;;;;;;;5115247;28;20182;-78
2022/07/09 14:48:53;;;;;;;2.22;0.80;;;;;;;;;;5118815;28;20564;-78
2022/07/09 14:51:59;;;;;;;0.93;0.60;;;;;;;;;;5120800;28;20224;-78
2022/07/09 14:55:04;;;;;;;0.77;0.60;;;;;;;;;;5118201;28;20185;-78
2022/07/09 14:58:08;;;;;;;0.63;0.60;;;;;;;;;;5118353;28;20169;-78
2022/07/09 15:01:13;;;;;;;1.27;0.80;;;;;;;;;;5103530;28;20207;-78
2022/07/09 15:04:17;;;;;;;2.83;0.77;;;;;;;;;;5116042;28;20187;-78
2022/07/09 15:07:21;;;;;;;2.03;0.80;;;;;;;;;;5115265;28;20220;-78
2022/07/09 15:10:25;;;;;;;0.60;0.60;;;;;;;;;;5117629;28;20266;-78
2022/07/09 15:13:30;;;;;;;1.70;0.68;;;;;;;;;;5117450;28;20196;-78
2022/07/09 15:16:34;;;;;;;2.20;0.80;;;;;;;;;;5115681;28;20181;-78
2022/07/09 15:19:38;;;;;;;4.03;0.90;;;;;;;;;;5093418;28;20174;-78
2022/07/09 15:22:42;;;;;;;2.33;0.70;;;;;;;;;;5099345;28;20199;-78
2022/07/09 15:25:46;;;;;;;0.95;0.75;;;;;;;;;;5103062;28;20180;-78
2022/07/09 15:28:50;;;;;;;1.58;0.70;;;;;;;;;;5095013;28;20202;-78
2022/07/09 15:31:55;;;;;;;0.98;0.60;;;;;;;;;;5086256;28;20218;-78
2022/07/09 15:34:59;;;;;;;1.73;0.70;;;;;;;;;;5097722;28;20567;-77
2022/07/09 15:38:03;;;;;;;1.23;0.80;;;;;;;;;;5089087;28;20180;-78
2022/07/09 15:41:10;;;;;;;4.13;0.80;;;;;;;;;;5103395;28;20213;-77
2022/07/09 15:44:15;;;;;;;1.37;0.87;;;;;;;;;;5103453;28;20173;-77
2022/07/09 15:47:19;;;;;;;1.43;0.87;;;;;;;;;;5092654;28;20205;-77
2022/07/09 15:50:23;;;;;;;3.07;0.90;;;;;;;;;;5107086;28;20187;-78
2022/07/09 15:53:27;;;;;;;1.27;0.90;;;;;;;;;;5104527;28;20180;-77
2022/07/09 15:56:32;;;;;;;1.90;0.87;;;;;;;;;;5106117;28;20175;-77
2022/07/09 15:59:36;;;;;;;1.93;1.07;;;;;;;;;;5102668;28;20180;-78
2022/07/09 16:02:40;;;;;;;2.23;0.80;;;;;;;;;;5107265;28;20182;-78
2022/07/09 16:05:44;;;;;;;1.97;1.00;;;;;;;;;;5107510;28;20172;-77
2022/07/09 16:08:48;;;;;;;1.43;0.90;;;;;;;;;;5103668;28;20681;-77
2022/07/09 16:15:20;;;;;;;1.37;0.70;;;;;;;;;;5102071;28;20181;-77
2022/07/09 16:18:24;;;;;;;1.83;0.80;;;;;;;;;;5101813;28;20170;-77
2022/07/09 16:21:28;;;;;;;2.03;0.83;;;;;;;;;;5100545;28;20221;-78
2022/07/09 16:24:34;;;;;;;1.53;0.90;;;;;;;;;;5100671;28;20175;-77
2022/07/09 16:27:40;;;;;;;2.60;0.87;;;;;;;;;;5100560;28;20206;-77
2022/07/09 16:30:44;;;;;;;3.90;0.90;;;;;;;;;;5100528;28;20696;-78
2022/07/09 16:33:48;;;;;;;4.07;1.00;;;;;;;;;;5102908;28;20553;-78
2022/07/09 16:36:52;;;;;;;1.70;0.90;;;;;;;;;;5098012;28;20185;-77
2022/07/09 16:39:59;;;;;;;2.70;0.90;;;;;;;;;;5077101;28;20174;-77
2022/07/09 16:43:03;;;;;;;1.57;0.87;;;;;;;;;;5099588;28;20644;-77
2022/07/09 16:46:07;;;;;;;5.37;0.90;;;;;;;;;;5098759;28;20628;-77
2022/07/09 16:49:11;;;;;;;4.23;0.80;;;;;;;;;;5102286;28;20215;-78
2022/07/09 16:52:15;;;;;;;2.73;1.03;;;;;;;;;;5100726;28;20229;-77
2022/07/09 16:55:19;;;;;;;20.43;1.90;;;;;;;;;;5102107;28;20181;-77
2022/07/09 16:58:24;;;;;;;2.10;0.90;;;;;;;;;;5101516;28;20192;-78
2022/07/09 17:01:28;;;;;;;4.77;1.77;;;;;;;;;;5102057;28;20216;-77
2022/07/09 17:04:32;;;;;;;4.83;1.33;;;;;;;;;;5102123;28;20635;-77
2022/07/09 17:07:36;;;;;;;2.57;0.80;;;;;;;;;;5098606;28;20209;-77
2022/07/09 17:10:40;;;;;;;2.17;0.97;;;;;;;;;;5097943;28;20217;-77
2022/07/09 17:13:44;;;;;;;1.90;0.90;;;;;;;;;;5103053;28;20180;-77
2022/07/09 17:16:49;;;;;;;1.90;1.00;;;;;;;;;;5103271;28;20176;-77
2022/07/09 17:19:53;;;;;;;1.50;0.83;;;;;;;;;;5101959;28;20195;-77
2022/07/09 17:22:58;;;;;;;1.43;0.80;;;;;;;;;;5097653;28;20180;-77
2022/07/09 17:26:02;;;;;;;1.47;0.80;;;;;;;;;;5100607;28;20183;-77
2022/07/09 17:29:06;;;;;;;1.93;0.90;;;;;;;;;;5100634;28;20198;-77
2022/07/09 17:32:11;;;;;;;4.10;1.20;;;;;;;;;;5100556;28;20218;-77
2022/07/09 17:35:15;;;;;;;2.87;0.80;;;;;;;;;;5099297;28;20179;-77
2022/07/09 17:38:19;;;;;;;2.67;0.90;;;;;;;;;;5100300;28;20177;-77
2022/07/09 17:41:23;;;;;;;3.33;1.27;;;;;;;;;;5099942;28;20214;-77
2022/07/09 17:44:30;;;;;;;3.03;1.00;;;;;;;;;;5099735;28;20194;-77
2022/07/09 17:47:34;;;;;;;3.13;0.80;;;;;;;;;;5100827;28;20175;-77
2022/07/09 17:50:38;;;;;;;2.67;1.10;;;;;;;;;;5099632;28;20222;-77
2022/07/09 17:53:42;;;;;;;3.53;1.03;;;;;;;;;;5100198;28;20183;-77
2022/07/09 17:56:46;;;;;;;2.63;1.13;;;;;;;;;;5099209;28;20183;-77
2022/07/09 17:59:51;;;;;;;3.87;1.00;;;;;;;;;;5088288;28;20175;-77
2022/07/09 18:02:55;;;;;;;1.43;0.83;;;;;;;;;;5098378;28;20178;-77
2022/07/09 18:05:59;;;;;;;2.27;0.80;;;;;;;;;;5100068;28;20179;-77
2022/07/09 18:09:03;;;;;;;3.30;0.90;;;;;;;;;;5101783;28;20202;-77
2022/07/09 18:12:08;;;;;;;2.17;1.00;;;;;;;;;;5099739;28;20574;-77
2022/07/09 18:15:12;;;;;;;4.83;1.00;;;;;;;;;;5099179;28;20174;-77
2022/07/09 18:18:16;;;;;;;3.87;1.20;;;;;;;;;;5103859;28;20191;-77
2022/07/09 18:21:21;;;;;;;3.83;1.23;;;;;;;;;;5106069;28;20222;-77
2022/07/09 18:24:25;;;;;;;2.93;0.97;;;;;;;;;;5101693;28;20198;-77
2022/07/09 18:27:29;;;;;;;2.50;0.90;;;;;;;;;;5100991;28;20182;-77
2022/07/09 18:30:33;;;;;;;4.80;1.10;;;;;;;;;;5091899;28;20214;-78
2022/07/09 18:33:37;;;;;;;2.93;1.30;;;;;;;;;;5105316;28;20199;-77
2022/07/09 18:36:42;;;;;;;1.53;0.80;;;;;;;;;;5103032;28;20199;-77